sensor_id;sensor_type;location;lat;lon;timestamp;P1;durP1;ratioP1;P2;durP2;ratioP2
12660;SDS011;39039;51.802;5.710;2023-02-15T00:00:19;120.80;;;56.80;;
12660;SDS011;39039;51.802;5.710;2023-02-15T00:02:46;90.07;;;51.70;;
12660;SDS011;39039;51.802;5.710;2023-02-15T00:05:15;101.07;;;54.27;;
12660;SDS011;39039;51.802;5.710;2023-02-15T00:07:42;92.40;;;53.03;;
12660;SDS011;39039;51.802;5.710;2023-02-15T00:10:09;78.47;;;50.97;;
12660;SDS011;39039;51.802;5.710;2023-02-15T00:12:37;103.30;;;57.83;;
12660;SDS011;39039;51.802;5.710;2023-02-15T00:15:04;71.30;;;50.40;;
12660;SDS011;39039;51.802;5.710;2023-02-15T00:17:31;83.77;;;55.40;;
12660;SDS011;39039;51.802;5.710;2023-02-15T00:19:58;72.33;;;50.90;;
12660;SDS011;39039;51.802;5.710;2023-02-15T00:22:26;92.77;;;51.87;;
12660;SDS011;39039;51.802;5.710;2023-02-15T00:24:53;78.63;;;48.40;;
12660;SDS011;39039;51.802;5.710;2023-02-15T00:27:20;68.20;;;45.43;;
12660;SDS011;39039;51.802;5.710;2023-02-15T00:29:47;71.40;;;46.00;;
12660;SDS011;39039;51.802;5.710;2023-02-15T00:32:14;67.80;;;44.93;;
12660;SDS011;39039;51.802;5.710;2023-02-15T00:34:41;73.80;;;46.43;;
12660;SDS011;39039;51.802;5.710;2023-02-15T00:37:09;79.17;;;47.93;;
12660;SDS011;39039;51.802;5.710;2023-02-15T00:39:37;118.60;;;53.63;;
12660;SDS011;39039;51.802;5.710;2023-02-15T00:42:04;103.17;;;51.10;;
12660;SDS011;39039;51.802;5.710;2023-02-15T00:44:31;83.93;;;50.90;;
12660;SDS011;39039;51.802;5.710;2023-02-15T00:46:58;91.33;;;52.27;;
12660;SDS011;39039;51.802;5.710;2023-02-15T00:49:25;92.23;;;51.40;;
12660;SDS011;39039;51.802;5.710;2023-02-15T00:51:52;107.50;;;58.17;;
12660;SDS011;39039;51.802;5.710;2023-02-15T00:54:19;94.83;;;54.87;;
12660;SDS011;39039;51.802;5.710;2023-02-15T00:56:48;90.13;;;54.13;;
12660;SDS011;39039;51.802;5.710;2023-02-15T00:59:15;109.50;;;55.97;;
12660;SDS011;39039;51.802;5.710;2023-02-15T01:01:42;87.17;;;52.17;;
12660;SDS011;39039;51.802;5.710;2023-02-15T01:04:09;73.60;;;48.27;;
12660;SDS011;39039;51.802;5.710;2023-02-15T01:06:36;90.03;;;54.23;;
12660;SDS011;39039;51.802;5.710;2023-02-15T01:09:03;102.27;;;55.97;;
12660;SDS011;39039;51.802;5.710;2023-02-15T01:11:30;85.57;;;52.93;;
12660;SDS011;39039;51.802;5.710;2023-02-15T01:13:59;85.57;;;51.10;;
12660;SDS011;39039;51.802;5.710;2023-02-15T01:16:28;112.17;;;57.43;;
12660;SDS011;39039;51.802;5.710;2023-02-15T01:18:55;91.53;;;51.87;;
12660;SDS011;39039;51.802;5.710;2023-02-15T01:21:22;74.07;;;45.93;;
12660;SDS011;39039;51.802;5.710;2023-02-15T01:23:50;77.97;;;48.50;;
12660;SDS011;39039;51.802;5.710;2023-02-15T01:26:17;77.90;;;47.20;;
12660;SDS011;39039;51.802;5.710;2023-02-15T01:28:44;95.57;;;52.53;;
12660;SDS011;39039;51.802;5.710;2023-02-15T01:31:13;78.17;;;50.17;;
12660;SDS011;39039;51.802;5.710;2023-02-15T01:33:42;79.50;;;48.33;;
12660;SDS011;39039;51.802;5.710;2023-02-15T01:36:09;79.67;;;49.77;;
12660;SDS011;39039;51.802;5.710;2023-02-15T01:38:36;92.60;;;52.30;;
12660;SDS011;39039;51.802;5.710;2023-02-15T01:41:05;99.40;;;54.47;;
12660;SDS011;39039;51.802;5.710;2023-02-15T01:43:49;84.87;;;49.77;;
12660;SDS011;39039;51.802;5.710;2023-02-15T01:46:19;79.63;;;48.80;;
12660;SDS011;39039;51.802;5.710;2023-02-15T01:48:47;97.60;;;52.87;;
12660;SDS011;39039;51.802;5.710;2023-02-15T01:51:15;89.87;;;50.27;;
12660;SDS011;39039;51.802;5.710;2023-02-15T01:53:45;80.47;;;49.63;;
12660;SDS011;39039;51.802;5.710;2023-02-15T01:56:15;76.00;;;45.37;;
12660;SDS011;39039;51.802;5.710;2023-02-15T01:58:44;65.20;;;44.53;;
12660;SDS011;39039;51.802;5.710;2023-02-15T02:01:12;90.90;;;48.30;;
12660;SDS011;39039;51.802;5.710;2023-02-15T02:03:42;100.63;;;50.40;;
12660;SDS011;39039;51.802;5.710;2023-02-15T02:06:15;99.93;;;51.00;;
12660;SDS011;39039;51.802;5.710;2023-02-15T02:08:42;88.37;;;47.47;;
12660;SDS011;39039;51.802;5.710;2023-02-15T02:11:10;71.67;;;44.37;;
12660;SDS011;39039;51.802;5.710;2023-02-15T02:13:38;77.53;;;46.57;;
12660;SDS011;39039;51.802;5.710;2023-02-15T02:16:07;78.10;;;46.80;;
12660;SDS011;39039;51.802;5.710;2023-02-15T02:18:38;68.10;;;43.47;;
12660;SDS011;39039;51.802;5.710;2023-02-15T02:21:16;68.67;;;43.93;;
12660;SDS011;39039;51.802;5.710;2023-02-15T02:24:05;80.13;;;45.90;;
12660;SDS011;39039;51.802;5.710;2023-02-15T02:26:47;92.03;;;48.93;;
12660;SDS011;39039;51.802;5.710;2023-02-15T02:35:26;86.00;;;48.70;;
12660;SDS011;39039;51.802;5.710;2023-02-15T02:38:01;87.63;;;48.93;;
12660;SDS011;39039;51.802;5.710;2023-02-15T02:40:34;88.13;;;47.07;;
12660;SDS011;39039;51.802;5.710;2023-02-15T02:43:10;72.53;;;44.40;;
12660;SDS011;39039;51.802;5.710;2023-02-15T02:45:39;72.57;;;45.93;;
12660;SDS011;39039;51.802;5.710;2023-02-15T02:48:09;90.17;;;46.30;;
12660;SDS011;39039;51.802;5.710;2023-02-15T02:50:39;69.87;;;43.80;;
12660;SDS011;39039;51.802;5.710;2023-02-15T02:53:06;74.43;;;42.77;;
12660;SDS011;39039;51.802;5.710;2023-02-15T02:55:34;72.67;;;44.53;;
12660;SDS011;39039;51.802;5.710;2023-02-15T02:58:04;82.20;;;45.43;;
12660;SDS011;39039;51.802;5.710;2023-02-15T03:00:32;83.57;;;45.80;;
12660;SDS011;39039;51.802;5.710;2023-02-15T03:03:02;80.97;;;45.43;;
12660;SDS011;39039;51.802;5.710;2023-02-15T03:05:31;100.70;;;47.63;;
12660;SDS011;39039;51.802;5.710;2023-02-15T03:08:01;83.80;;;44.03;;
12660;SDS011;39039;51.802;5.710;2023-02-15T03:10:31;63.40;;;41.93;;
12660;SDS011;39039;51.802;5.710;2023-02-15T03:12:59;67.30;;;44.27;;
12660;SDS011;39039;51.802;5.710;2023-02-15T03:15:28;67.67;;;41.73;;
12660;SDS011;39039;51.802;5.710;2023-02-15T03:18:16;68.43;;;42.83;;
12660;SDS011;39039;51.802;5.710;2023-02-15T03:20:44;91.00;;;48.07;;
12660;SDS011;39039;51.802;5.710;2023-02-15T03:23:14;70.80;;;42.73;;
12660;SDS011;39039;51.802;5.710;2023-02-15T03:25:43;73.10;;;44.27;;
12660;SDS011;39039;51.802;5.710;2023-02-15T03:28:12;84.70;;;45.73;;
12660;SDS011;39039;51.802;5.710;2023-02-15T03:30:41;81.17;;;44.23;;
12660;SDS011;39039;51.802;5.710;2023-02-15T03:33:09;73.37;;;44.57;;
12660;SDS011;39039;51.802;5.710;2023-02-15T03:35:38;82.90;;;46.40;;
12660;SDS011;39039;51.802;5.710;2023-02-15T03:38:06;81.50;;;46.40;;
12660;SDS011;39039;51.802;5.710;2023-02-15T03:40:36;86.60;;;49.97;;
12660;SDS011;39039;51.802;5.710;2023-02-15T03:43:23;106.97;;;52.93;;
12660;SDS011;39039;51.802;5.710;2023-02-15T03:45:55;102.23;;;52.73;;
12660;SDS011;39039;51.802;5.710;2023-02-15T03:48:24;96.77;;;49.70;;
12660;SDS011;39039;51.802;5.710;2023-02-15T03:50:52;95.77;;;52.33;;
12660;SDS011;39039;51.802;5.710;2023-02-15T03:53:38;96.33;;;51.90;;
12660;SDS011;39039;51.802;5.710;2023-02-15T03:56:07;102.57;;;50.57;;
12660;SDS011;39039;51.802;5.710;2023-02-15T03:58:34;95.87;;;54.10;;
12660;SDS011;39039;51.802;5.710;2023-02-15T04:01:17;87.97;;;50.87;;
12660;SDS011;39039;51.802;5.710;2023-02-15T04:04:06;98.40;;;49.80;;
12660;SDS011;39039;51.802;5.710;2023-02-15T04:06:34;96.70;;;51.97;;
12660;SDS011;39039;51.802;5.710;2023-02-15T04:09:01;99.47;;;53.97;;
12660;SDS011;39039;51.802;5.710;2023-02-15T04:11:47;94.70;;;52.13;;
12660;SDS011;39039;51.802;5.710;2023-02-15T04:14:14;87.10;;;49.77;;
12660;SDS011;39039;51.802;5.710;2023-02-15T04:16:58;103.90;;;52.47;;
12660;SDS011;39039;51.802;5.710;2023-02-15T04:19:26;90.90;;;51.97;;
12660;SDS011;39039;51.802;5.710;2023-02-15T04:22:10;96.77;;;52.57;;
12660;SDS011;39039;51.802;5.710;2023-02-15T04:24:54;94.10;;;51.90;;
12660;SDS011;39039;51.802;5.710;2023-02-15T04:27:39;95.60;;;54.07;;
12660;SDS011;39039;51.802;5.710;2023-02-15T04:30:06;91.90;;;55.07;;
12660;SDS011;39039;51.802;5.710;2023-02-15T04:32:34;102.00;;;58.27;;
12660;SDS011;39039;51.802;5.710;2023-02-15T04:35:01;112.73;;;63.23;;
12660;SDS011;39039;51.802;5.710;2023-02-15T04:37:28;105.87;;;56.27;;
12660;SDS011;39039;51.802;5.710;2023-02-15T04:39:55;119.00;;;59.07;;
12660;SDS011;39039;51.802;5.710;2023-02-15T04:42:23;108.73;;;55.57;;
12660;SDS011;39039;51.802;5.710;2023-02-15T04:44:52;91.07;;;52.80;;
12660;SDS011;39039;51.802;5.710;2023-02-15T04:47:19;101.70;;;51.57;;
12660;SDS011;39039;51.802;5.710;2023-02-15T04:49:46;103.20;;;52.37;;
12660;SDS011;39039;51.802;5.710;2023-02-15T04:52:13;117.17;;;55.40;;
12660;SDS011;39039;51.802;5.710;2023-02-15T04:54:40;113.43;;;55.83;;
12660;SDS011;39039;51.802;5.710;2023-02-15T04:57:07;105.30;;;56.20;;
12660;SDS011;39039;51.802;5.710;2023-02-15T04:59:34;95.13;;;51.97;;
12660;SDS011;39039;51.802;5.710;2023-02-15T05:02:02;105.33;;;54.60;;
12660;SDS011;39039;51.802;5.710;2023-02-15T05:04:30;106.83;;;56.03;;
12660;SDS011;39039;51.802;5.710;2023-02-15T05:06:57;105.50;;;53.53;;
12660;SDS011;39039;51.802;5.710;2023-02-15T05:09:24;105.10;;;51.40;;
12660;SDS011;39039;51.802;5.710;2023-02-15T05:11:51;125.67;;;53.43;;
12660;SDS011;39039;51.802;5.710;2023-02-15T05:14:18;114.07;;;53.97;;
12660;SDS011;39039;51.802;5.710;2023-02-15T05:16:45;91.47;;;50.87;;
12660;SDS011;39039;51.802;5.710;2023-02-15T05:19:13;115.00;;;53.13;;
12660;SDS011;39039;51.802;5.710;2023-02-15T05:21:40;118.03;;;52.87;;
12660;SDS011;39039;51.802;5.710;2023-02-15T05:24:09;109.40;;;53.37;;
12660;SDS011;39039;51.802;5.710;2023-02-15T05:27:10;99.47;;;50.47;;
12660;SDS011;39039;51.802;5.710;2023-02-15T05:29:55;94.27;;;52.23;;
12660;SDS011;39039;51.802;5.710;2023-02-15T05:32:22;120.33;;;53.73;;
12660;SDS011;39039;51.802;5.710;2023-02-15T05:34:50;105.93;;;53.23;;
12660;SDS011;39039;51.802;5.710;2023-02-15T05:37:17;106.30;;;52.93;;
12660;SDS011;39039;51.802;5.710;2023-02-15T05:39:45;104.97;;;49.83;;
12660;SDS011;39039;51.802;5.710;2023-02-15T05:42:12;112.10;;;51.43;;
12660;SDS011;39039;51.802;5.710;2023-02-15T05:44:42;102.00;;;51.27;;
12660;SDS011;39039;51.802;5.710;2023-02-15T05:47:10;105.60;;;53.57;;
12660;SDS011;39039;51.802;5.710;2023-02-15T05:49:37;97.67;;;50.73;;
12660;SDS011;39039;51.802;5.710;2023-02-15T05:52:06;89.27;;;51.70;;
12660;SDS011;39039;51.802;5.710;2023-02-15T05:54:33;104.10;;;56.77;;
12660;SDS011;39039;51.802;5.710;2023-02-15T05:57:00;93.40;;;54.70;;
12660;SDS011;39039;51.802;5.710;2023-02-15T05:59:27;112.83;;;63.87;;
12660;SDS011;39039;51.802;5.710;2023-02-15T06:01:54;104.80;;;65.17;;
12660;SDS011;39039;51.802;5.710;2023-02-15T06:04:21;114.33;;;64.90;;
12660;SDS011;39039;51.802;5.710;2023-02-15T06:06:49;101.57;;;61.87;;
12660;SDS011;39039;51.802;5.710;2023-02-15T06:09:17;120.07;;;63.70;;
12660;SDS011;39039;51.802;5.710;2023-02-15T06:11:44;100.70;;;60.10;;
12660;SDS011;39039;51.802;5.710;2023-02-15T06:14:11;119.77;;;62.40;;
12660;SDS011;39039;51.802;5.710;2023-02-15T06:16:38;110.23;;;61.47;;
12660;SDS011;39039;51.802;5.710;2023-02-15T06:19:05;118.40;;;58.37;;
12660;SDS011;39039;51.802;5.710;2023-02-15T06:21:33;117.97;;;59.83;;
12660;SDS011;39039;51.802;5.710;2023-02-15T06:24:00;124.00;;;55.90;;
12660;SDS011;39039;51.802;5.710;2023-02-15T06:26:28;108.90;;;56.97;;
12660;SDS011;39039;51.802;5.710;2023-02-15T06:28:55;107.80;;;59.67;;
12660;SDS011;39039;51.802;5.710;2023-02-15T06:31:22;118.03;;;59.00;;
12660;SDS011;39039;51.802;5.710;2023-02-15T06:33:49;133.30;;;58.40;;
12660;SDS011;39039;51.802;5.710;2023-02-15T06:36:16;117.13;;;51.70;;
12660;SDS011;39039;51.802;5.710;2023-02-15T06:38:43;105.43;;;53.83;;
12660;SDS011;39039;51.802;5.710;2023-02-15T06:41:10;121.17;;;54.90;;
12660;SDS011;39039;51.802;5.710;2023-02-15T06:43:38;113.23;;;54.33;;
12660;SDS011;39039;51.802;5.710;2023-02-15T06:46:05;109.07;;;53.90;;
12660;SDS011;39039;51.802;5.710;2023-02-15T06:48:32;124.00;;;55.77;;
12660;SDS011;39039;51.802;5.710;2023-02-15T06:50:59;116.17;;;57.17;;
12660;SDS011;39039;51.802;5.710;2023-02-15T06:53:27;123.37;;;57.13;;
12660;SDS011;39039;51.802;5.710;2023-02-15T06:55:59;136.20;;;58.97;;
12660;SDS011;39039;51.802;5.710;2023-02-15T06:58:27;109.87;;;54.47;;
12660;SDS011;39039;51.802;5.710;2023-02-15T07:00:56;112.57;;;56.30;;
12660;SDS011;39039;51.802;5.710;2023-02-15T07:03:23;115.57;;;53.73;;
12660;SDS011;39039;51.802;5.710;2023-02-15T07:05:53;114.40;;;52.37;;
12660;SDS011;39039;51.802;5.710;2023-02-15T07:08:26;123.80;;;57.13;;
12660;SDS011;39039;51.802;5.710;2023-02-15T07:10:53;115.53;;;56.50;;
12660;SDS011;39039;51.802;5.710;2023-02-15T07:13:41;135.07;;;58.47;;
12660;SDS011;39039;51.802;5.710;2023-02-15T07:16:09;103.37;;;53.00;;
12660;SDS011;39039;51.802;5.710;2023-02-15T07:18:36;104.30;;;54.10;;
12660;SDS011;39039;51.802;5.710;2023-02-15T07:21:04;115.30;;;57.70;;
12660;SDS011;39039;51.802;5.710;2023-02-15T07:23:33;109.87;;;53.70;;
12660;SDS011;39039;51.802;5.710;2023-02-15T07:26:00;129.03;;;57.83;;
12660;SDS011;39039;51.802;5.710;2023-02-15T07:28:27;112.33;;;55.27;;
12660;SDS011;39039;51.802;5.710;2023-02-15T07:30:54;105.77;;;51.77;;
12660;SDS011;39039;51.802;5.710;2023-02-15T07:33:23;112.93;;;56.30;;
12660;SDS011;39039;51.802;5.710;2023-02-15T07:35:52;141.20;;;60.70;;
12660;SDS011;39039;51.802;5.710;2023-02-15T07:38:20;118.57;;;56.47;;
12660;SDS011;39039;51.802;5.710;2023-02-15T07:40:48;134.57;;;58.00;;
12660;SDS011;39039;51.802;5.710;2023-02-15T07:43:15;96.67;;;53.10;;
12660;SDS011;39039;51.802;5.710;2023-02-15T07:45:42;90.43;;;51.93;;
12660;SDS011;39039;51.802;5.710;2023-02-15T07:48:09;106.10;;;56.10;;
12660;SDS011;39039;51.802;5.710;2023-02-15T07:50:38;89.87;;;52.40;;
12660;SDS011;39039;51.802;5.710;2023-02-15T07:53:05;110.80;;;56.47;;
12660;SDS011;39039;51.802;5.710;2023-02-15T07:55:32;90.40;;;53.37;;
12660;SDS011;39039;51.802;5.710;2023-02-15T07:57:59;98.03;;;53.13;;
12660;SDS011;39039;51.802;5.710;2023-02-15T08:00:27;93.80;;;52.00;;
12660;SDS011;39039;51.802;5.710;2023-02-15T08:02:55;106.73;;;57.40;;
12660;SDS011;39039;51.802;5.710;2023-02-15T08:05:42;87.40;;;52.53;;
12660;SDS011;39039;51.802;5.710;2023-02-15T08:08:10;87.27;;;51.90;;
12660;SDS011;39039;51.802;5.710;2023-02-15T08:10:56;84.83;;;53.03;;
12660;SDS011;39039;51.802;5.710;2023-02-15T08:13:42;87.20;;;56.17;;
12660;SDS011;39039;51.802;5.710;2023-02-15T08:16:18;79.60;;;54.00;;
12660;SDS011;39039;51.802;5.710;2023-02-15T08:18:45;74.00;;;51.93;;
12660;SDS011;39039;51.802;5.710;2023-02-15T08:21:14;79.93;;;51.50;;
12660;SDS011;39039;51.802;5.710;2023-02-15T08:23:41;83.10;;;54.10;;
12660;SDS011;39039;51.802;5.710;2023-02-15T08:26:08;73.20;;;48.40;;
12660;SDS011;39039;51.802;5.710;2023-02-15T08:28:35;72.50;;;47.10;;
12660;SDS011;39039;51.802;5.710;2023-02-15T08:31:05;70.87;;;50.40;;
12660;SDS011;39039;51.802;5.710;2023-02-15T08:33:32;72.83;;;51.23;;
12660;SDS011;39039;51.802;5.710;2023-02-15T08:36:02;71.27;;;50.63;;
12660;SDS011;39039;51.802;5.710;2023-02-15T08:38:30;73.50;;;49.37;;
12660;SDS011;39039;51.802;5.710;2023-02-15T08:40:58;76.60;;;52.17;;
12660;SDS011;39039;51.802;5.710;2023-02-15T08:43:25;71.00;;;48.97;;
12660;SDS011;39039;51.802;5.710;2023-02-15T08:45:53;68.73;;;46.07;;
12660;SDS011;39039;51.802;5.710;2023-02-15T08:48:20;70.00;;;48.03;;
12660;SDS011;39039;51.802;5.710;2023-02-15T08:50:47;71.17;;;49.63;;
12660;SDS011;39039;51.802;5.710;2023-02-15T08:53:14;70.13;;;47.93;;
12660;SDS011;39039;51.802;5.710;2023-02-15T08:55:46;66.47;;;46.47;;
12660;SDS011;39039;51.802;5.710;2023-02-15T08:58:16;68.43;;;49.90;;
12660;SDS011;39039;51.802;5.710;2023-02-15T09:00:43;73.17;;;51.07;;
12660;SDS011;39039;51.802;5.710;2023-02-15T09:03:10;67.60;;;47.90;;
12660;SDS011;39039;51.802;5.710;2023-02-15T09:05:37;68.43;;;47.27;;
12660;SDS011;39039;51.802;5.710;2023-02-15T09:08:04;66.77;;;47.50;;
12660;SDS011;39039;51.802;5.710;2023-02-15T09:10:33;68.57;;;48.97;;
12660;SDS011;39039;51.802;5.710;2023-02-15T09:13:01;61.57;;;48.83;;
12660;SDS011;39039;51.802;5.710;2023-02-15T09:15:28;65.30;;;48.83;;
12660;SDS011;39039;51.802;5.710;2023-02-15T09:17:56;64.27;;;49.27;;
12660;SDS011;39039;51.802;5.710;2023-02-15T09:20:24;63.03;;;49.77;;
12660;SDS011;39039;51.802;5.710;2023-02-15T09:22:51;61.40;;;49.20;;
12660;SDS011;39039;51.802;5.710;2023-02-15T09:25:19;60.93;;;47.43;;
12660;SDS011;39039;51.802;5.710;2023-02-15T09:27:46;60.43;;;46.43;;
12660;SDS011;39039;51.802;5.710;2023-02-15T09:30:14;61.60;;;47.03;;
12660;SDS011;39039;51.802;5.710;2023-02-15T09:32:42;65.20;;;48.47;;
12660;SDS011;39039;51.802;5.710;2023-02-15T09:35:10;63.43;;;47.80;;
12660;SDS011;39039;51.802;5.710;2023-02-15T09:37:37;59.63;;;46.03;;
12660;SDS011;39039;51.802;5.710;2023-02-15T09:40:05;63.63;;;49.03;;
12660;SDS011;39039;51.802;5.710;2023-02-15T09:42:39;59.57;;;47.27;;
12660;SDS011;39039;51.802;5.710;2023-02-15T09:45:15;58.37;;;45.23;;
12660;SDS011;39039;51.802;5.710;2023-02-15T09:47:57;66.00;;;47.40;;
12660;SDS011;39039;51.802;5.710;2023-02-15T09:50:29;62.50;;;50.17;;
12660;SDS011;39039;51.802;5.710;2023-02-15T09:53:02;61.30;;;48.70;;
12660;SDS011;39039;51.802;5.710;2023-02-15T09:55:37;59.63;;;49.77;;
12660;SDS011;39039;51.802;5.710;2023-02-15T09:58:08;57.73;;;46.30;;
12660;SDS011;39039;51.802;5.710;2023-02-15T10:00:43;59.80;;;51.10;;
12660;SDS011;39039;51.802;5.710;2023-02-15T10:03:18;61.77;;;50.33;;
12660;SDS011;39039;51.802;5.710;2023-02-15T10:06:10;57.57;;;46.20;;
12660;SDS011;39039;51.802;5.710;2023-02-15T10:08:46;55.03;;;42.73;;
12660;SDS011;39039;51.802;5.710;2023-02-15T10:11:19;53.07;;;42.33;;
12660;SDS011;39039;51.802;5.710;2023-02-15T10:14:17;50.33;;;43.07;;
12660;SDS011;39039;51.802;5.710;2023-02-15T10:16:55;55.00;;;42.67;;
12660;SDS011;39039;51.802;5.710;2023-02-15T10:19:40;50.27;;;42.07;;
12660;SDS011;39039;51.802;5.710;2023-02-15T10:22:16;52.53;;;43.97;;
12660;SDS011;39039;51.802;5.710;2023-02-15T10:24:59;49.03;;;42.27;;
12660;SDS011;39039;51.802;5.710;2023-02-15T10:27:39;53.53;;;45.60;;
12660;SDS011;39039;51.802;5.710;2023-02-15T10:30:12;52.10;;;45.13;;
12660;SDS011;39039;51.802;5.710;2023-02-15T10:32:43;51.70;;;43.20;;
12660;SDS011;39039;51.802;5.710;2023-02-15T10:35:20;50.77;;;42.80;;
12660;SDS011;39039;51.802;5.710;2023-02-15T10:37:57;47.47;;;42.37;;
12660;SDS011;39039;51.802;5.710;2023-02-15T10:40:37;49.40;;;44.10;;
12660;SDS011;39039;51.802;5.710;2023-02-15T10:43:15;50.30;;;44.90;;
12660;SDS011;39039;51.802;5.710;2023-02-15T10:45:54;54.10;;;45.77;;
12660;SDS011;39039;51.802;5.710;2023-02-15T10:48:34;49.63;;;44.33;;
12660;SDS011;39039;51.802;5.710;2023-02-15T10:51:30;48.37;;;42.83;;
12660;SDS011;39039;51.802;5.710;2023-02-15T10:54:09;54.03;;;44.93;;
12660;SDS011;39039;51.802;5.710;2023-02-15T10:56:49;53.33;;;47.27;;
12660;SDS011;39039;51.802;5.710;2023-02-15T10:59:31;49.70;;;44.27;;
12660;SDS011;39039;51.802;5.710;2023-02-15T11:02:11;53.57;;;48.27;;
12660;SDS011;39039;51.802;5.710;2023-02-15T11:04:50;50.10;;;44.83;;
12660;SDS011;39039;51.802;5.710;2023-02-15T11:07:22;56.27;;;47.30;;
12660;SDS011;39039;51.802;5.710;2023-02-15T11:09:51;58.40;;;52.50;;
12660;SDS011;39039;51.802;5.710;2023-02-15T11:12:23;54.10;;;44.40;;
12660;SDS011;39039;51.802;5.710;2023-02-15T11:14:52;57.53;;;51.50;;
12660;SDS011;39039;51.802;5.710;2023-02-15T11:17:25;48.20;;;42.97;;
12660;SDS011;39039;51.802;5.710;2023-02-15T11:19:58;52.27;;;43.63;;
12660;SDS011;39039;51.802;5.710;2023-02-15T11:22:30;59.37;;;53.07;;
12660;SDS011;39039;51.802;5.710;2023-02-15T11:25:00;64.87;;;58.83;;
12660;SDS011;39039;51.802;5.710;2023-02-15T11:27:29;62.37;;;56.53;;
12660;SDS011;39039;51.802;5.710;2023-02-15T11:29:59;67.40;;;60.83;;
12660;SDS011;39039;51.802;5.710;2023-02-15T11:32:29;56.47;;;50.87;;
12660;SDS011;39039;51.802;5.710;2023-02-15T11:35:00;55.77;;;50.23;;
12660;SDS011;39039;51.802;5.710;2023-02-15T11:37:32;47.03;;;41.93;;
12660;SDS011;39039;51.802;5.710;2023-02-15T11:40:03;47.73;;;42.53;;
12660;SDS011;39039;51.802;5.710;2023-02-15T11:42:43;46.67;;;41.33;;
12660;SDS011;39039;51.802;5.710;2023-02-15T11:45:16;47.37;;;42.47;;
12660;SDS011;39039;51.802;5.710;2023-02-15T11:47:49;48.57;;;43.33;;
12660;SDS011;39039;51.802;5.710;2023-02-15T11:50:22;47.97;;;42.03;;
12660;SDS011;39039;51.802;5.710;2023-02-15T11:52:50;49.70;;;44.53;;
12660;SDS011;39039;51.802;5.710;2023-02-15T11:55:22;46.80;;;41.70;;
12660;SDS011;39039;51.802;5.710;2023-02-15T11:57:51;48.23;;;42.80;;
12660;SDS011;39039;51.802;5.710;2023-02-15T12:00:25;48.53;;;43.40;;
12660;SDS011;39039;51.802;5.710;2023-02-15T12:03:01;46.67;;;41.63;;
12660;SDS011;39039;51.802;5.710;2023-02-15T12:05:33;48.07;;;43.10;;
12660;SDS011;39039;51.802;5.710;2023-02-15T12:08:03;46.57;;;41.60;;
12660;SDS011;39039;51.802;5.710;2023-02-15T12:10:40;46.50;;;41.50;;
12660;SDS011;39039;51.802;5.710;2023-02-15T12:13:13;46.70;;;41.03;;
12660;SDS011;39039;51.802;5.710;2023-02-15T12:15:42;46.77;;;40.80;;
12660;SDS011;39039;51.802;5.710;2023-02-15T12:18:17;49.73;;;43.07;;
12660;SDS011;39039;51.802;5.710;2023-02-15T12:20:48;46.77;;;41.77;;
12660;SDS011;39039;51.802;5.710;2023-02-15T12:23:16;50.60;;;45.17;;
12660;SDS011;39039;51.802;5.710;2023-02-15T12:25:49;48.13;;;43.07;;
12660;SDS011;39039;51.802;5.710;2023-02-15T12:28:30;49.80;;;44.67;;
12660;SDS011;39039;51.802;5.710;2023-02-15T12:30:59;48.07;;;42.83;;
12660;SDS011;39039;51.802;5.710;2023-02-15T12:33:29;46.47;;;41.40;;
12660;SDS011;39039;51.802;5.710;2023-02-15T12:36:01;47.50;;;42.13;;
12660;SDS011;39039;51.802;5.710;2023-02-15T12:38:35;54.83;;;49.27;;
12660;SDS011;39039;51.802;5.710;2023-02-15T12:41:19;54.80;;;49.33;;
12660;SDS011;39039;51.802;5.710;2023-02-15T12:43:50;58.70;;;52.90;;
12660;SDS011;39039;51.802;5.710;2023-02-15T12:46:30;59.53;;;54.17;;
12660;SDS011;39039;51.802;5.710;2023-02-15T12:49:10;61.23;;;55.23;;
12660;SDS011;39039;51.802;5.710;2023-02-15T12:51:45;58.47;;;52.67;;
12660;SDS011;39039;51.802;5.710;2023-02-15T12:57:26;57.37;;;51.53;;
12660;SDS011;39039;51.802;5.710;2023-02-15T12:59:55;55.10;;;49.47;;
12660;SDS011;39039;51.802;5.710;2023-02-15T13:02:24;62.93;;;57.10;;
12660;SDS011;39039;51.802;5.710;2023-02-15T13:04:57;53.93;;;48.57;;
12660;SDS011;39039;51.802;5.710;2023-02-15T13:07:35;59.63;;;53.80;;
12660;SDS011;39039;51.802;5.710;2023-02-15T13:10:03;68.33;;;62.23;;
12660;SDS011;39039;51.802;5.710;2023-02-15T13:12:32;69.90;;;63.33;;
12660;SDS011;39039;51.802;5.710;2023-02-15T13:14:59;73.27;;;66.97;;
12660;SDS011;39039;51.802;5.710;2023-02-15T13:17:29;64.97;;;59.00;;
12660;SDS011;39039;51.802;5.710;2023-02-15T13:20:00;61.07;;;55.00;;
12660;SDS011;39039;51.802;5.710;2023-02-15T13:22:32;65.10;;;59.20;;
12660;SDS011;39039;51.802;5.710;2023-02-15T13:25:09;69.20;;;63.20;;
12660;SDS011;39039;51.802;5.710;2023-02-15T13:27:39;63.73;;;57.73;;
12660;SDS011;39039;51.802;5.710;2023-02-15T13:30:13;64.37;;;58.13;;
12660;SDS011;39039;51.802;5.710;2023-02-15T13:32:51;67.90;;;61.70;;
12660;SDS011;39039;51.802;5.710;2023-02-15T13:35:21;65.87;;;59.70;;
12660;SDS011;39039;51.802;5.710;2023-02-15T13:38:02;58.60;;;52.63;;
12660;SDS011;39039;51.802;5.710;2023-02-15T13:40:45;50.97;;;45.20;;
12660;SDS011;39039;51.802;5.710;2023-02-15T13:43:25;47.73;;;42.77;;
12660;SDS011;39039;51.802;5.710;2023-02-15T13:46:09;53.50;;;44.47;;
12660;SDS011;39039;51.802;5.710;2023-02-15T13:48:51;52.77;;;42.70;;
12660;SDS011;39039;51.802;5.710;2023-02-15T13:51:27;46.30;;;41.37;;
12660;SDS011;39039;51.802;5.710;2023-02-15T13:54:08;47.13;;;42.20;;
12660;SDS011;39039;51.802;5.710;2023-02-15T13:56:58;50.03;;;44.83;;
12660;SDS011;39039;51.802;5.710;2023-02-15T13:59:40;46.83;;;41.93;;
12660;SDS011;39039;51.802;5.710;2023-02-15T14:02:28;50.77;;;42.23;;
12660;SDS011;39039;51.802;5.710;2023-02-15T14:05:23;47.07;;;41.93;;
12660;SDS011;39039;51.802;5.710;2023-02-15T14:08:02;48.70;;;43.57;;
12660;SDS011;39039;51.802;5.710;2023-02-15T14:10:44;50.57;;;45.37;;
12660;SDS011;39039;51.802;5.710;2023-02-15T14:13:27;49.77;;;44.67;;
12660;SDS011;39039;51.802;5.710;2023-02-15T14:16:09;48.30;;;43.20;;
12660;SDS011;39039;51.802;5.710;2023-02-15T14:18:44;49.30;;;44.00;;
12660;SDS011;39039;51.802;5.710;2023-02-15T14:21:15;49.37;;;43.03;;
12660;SDS011;39039;51.802;5.710;2023-02-15T14:23:57;48.90;;;43.70;;
12660;SDS011;39039;51.802;5.710;2023-02-15T14:26:38;51.87;;;45.97;;
12660;SDS011;39039;51.802;5.710;2023-02-15T14:29:16;53.13;;;47.33;;
12660;SDS011;39039;51.802;5.710;2023-02-15T14:31:48;50.80;;;45.40;;
12660;SDS011;39039;51.802;5.710;2023-02-15T14:34:21;48.57;;;43.57;;
12660;SDS011;39039;51.802;5.710;2023-02-15T14:36:51;44.90;;;40.10;;
12660;SDS011;39039;51.802;5.710;2023-02-15T14:39:22;46.17;;;40.90;;
12660;SDS011;39039;51.802;5.710;2023-02-15T14:42:18;47.77;;;42.67;;
12660;SDS011;39039;51.802;5.710;2023-02-15T14:44:52;46.77;;;41.07;;
12660;SDS011;39039;51.802;5.710;2023-02-15T14:47:26;47.40;;;42.40;;
12660;SDS011;39039;51.802;5.710;2023-02-15T14:50:00;44.73;;;39.43;;
12660;SDS011;39039;51.802;5.710;2023-02-15T14:53:22;44.83;;;39.93;;